sensor_id;sensor_type;location;lat;lon;timestamp;pressure;altitude;pressure_sealevel;temperature;humidity
36242;BME280;22283;42.748;12.732;2024-03-22T00:00:24;98489.13;;;12.22;100.00
36242;BME280;22283;42.748;12.732;2024-03-22T00:05:24;98462.34;;;12.14;100.00
36242;BME280;22283;42.748;12.732;2024-03-22T00:10:25;98455.06;;;12.05;100.00
36242;BME280;22283;42.748;12.732;2024-03-22T00:15:26;98456.25;;;12.01;100.00
36242;BME280;22283;42.748;12.732;2024-03-22T00:20:26;98458.41;;;11.96;100.00
36242;BME280;22283;42.748;12.732;2024-03-22T00:25:27;98455.97;;;11.93;100.00
36242;BME280;22283;42.748;12.732;2024-03-22T00:30:27;98454.50;;;11.89;100.00
36242;BME280;22283;42.748;12.732;2024-03-22T00:35:28;98459.81;;;11.89;100.00
36242;BME280;22283;42.748;12.732;2024-03-22T00:40:28;98460.03;;;11.86;100.00
36242;BME280;22283;42.748;12.732;2024-03-22T00:45:29;98465.13;;;11.76;100.00
36242;BME280;22283;42.748;12.732;2024-03-22T00:50:30;98464.44;;;11.61;100.00
36242;BME280;22283;42.748;12.732;2024-03-22T00:55:30;98472.19;;;11.51;100.00
36242;BME280;22283;42.748;12.732;2024-03-22T01:00:31;98465.44;;;11.35;100.00
36242;BME280;22283;42.748;12.732;2024-03-22T01:05:32;98453.59;;;11.27;100.00
36242;BME280;22283;42.748;12.732;2024-03-22T01:10:33;98444.06;;;11.25;100.00
36242;BME280;22283;42.748;12.732;2024-03-22T01:15:34;98447.56;;;11.25;100.00
36242;BME280;22283;42.748;12.732;2024-03-22T01:20:34;98431.47;;;11.28;100.00
36242;BME280;22283;42.748;12.732;2024-03-22T01:25:35;98424.34;;;11.29;100.00
36242;BME280;22283;42.748;12.732;2024-03-22T01:30:35;98413.50;;;11.32;100.00
36242;BME280;22283;42.748;12.732;2024-03-22T01:35:37;98398.72;;;11.29;100.00
36242;BME280;22283;42.748;12.732;2024-03-22T01:40:37;98353.41;;;11.21;100.00
36242;BME280;22283;42.748;12.732;2024-03-22T01:45:38;98347.13;;;11.22;100.00
36242;BME280;22283;42.748;12.732;2024-03-22T01:50:39;98320.78;;;11.21;100.00
36242;BME280;22283;42.748;12.732;2024-03-22T01:55:39;98312.13;;;11.06;100.00
36242;BME280;22283;42.748;12.732;2024-03-22T02:00:40;98337.47;;;10.97;100.00
36242;BME280;22283;42.748;12.732;2024-03-22T02:05:40;98326.78;;;10.86;100.00
36242;BME280;22283;42.748;12.732;2024-03-22T02:10:41;98319.59;;;10.75;100.00
36242;BME280;22283;42.748;12.732;2024-03-22T02:15:41;98321.63;;;10.59;100.00
36242;BME280;22283;42.748;12.732;2024-03-22T02:20:42;98321.75;;;10.57;100.00
36242;BME280;22283;42.748;12.732;2024-03-22T02:25:43;98314.56;;;10.47;100.00
36242;BME280;22283;42.748;12.732;2024-03-22T02:30:43;98316.25;;;10.35;100.00
36242;BME280;22283;42.748;12.732;2024-03-22T02:35:46;98322.41;;;10.36;100.00
36242;BME280;22283;42.748;12.732;2024-03-22T02:40:48;98317.63;;;10.41;100.00
36242;BME280;22283;42.748;12.732;2024-03-22T02:45:49;98330.00;;;10.53;100.00
36242;BME280;22283;42.748;12.732;2024-03-22T02:50:55;98319.50;;;10.64;100.00
36242;BME280;22283;42.748;12.732;2024-03-22T02:55:56;98305.84;;;10.70;100.00
36242;BME280;22283;42.748;12.732;2024-03-22T03:00:59;98326.38;;;10.79;100.00
36242;BME280;22283;42.748;12.732;2024-03-22T03:06:00;98316.28;;;10.84;100.00
36242;BME280;22283;42.748;12.732;2024-03-22T03:11:00;98309.78;;;10.77;100.00
36242;BME280;22283;42.748;12.732;2024-03-22T03:16:02;98300.78;;;10.67;100.00
36242;BME280;22283;42.748;12.732;2024-03-22T03:21:03;98311.91;;;10.59;100.00
36242;BME280;22283;42.748;12.732;2024-03-22T03:26:04;98308.41;;;10.59;100.00
36242;BME280;22283;42.748;12.732;2024-03-22T03:31:04;98309.47;;;10.44;100.00
36242;BME280;22283;42.748;12.732;2024-03-22T03:36:05;98318.38;;;10.43;100.00
36242;BME280;22283;42.748;12.732;2024-03-22T03:41:05;98309.59;;;10.42;100.00
36242;BME280;22283;42.748;12.732;2024-03-22T03:46:06;98319.84;;;10.47;100.00
36242;BME280;22283;42.748;12.732;2024-03-22T03:51:06;98334.25;;;10.43;100.00
36242;BME280;22283;42.748;12.732;2024-03-22T03:56:07;98327.28;;;10.42;100.00
36242;BME280;22283;42.748;12.732;2024-03-22T04:01:08;98335.72;;;10.47;100.00
36242;BME280;22283;42.748;12.732;2024-03-22T04:06:09;98335.28;;;10.40;100.00
36242;BME280;22283;42.748;12.732;2024-03-22T04:11:09;98351.16;;;10.40;100.00
36242;BME280;22283;42.748;12.732;2024-03-22T04:16:10;98357.94;;;10.44;100.00
36242;BME280;22283;42.748;12.732;2024-03-22T04:21:11;98355.19;;;10.46;100.00
36242;BME280;22283;42.748;12.732;2024-03-22T04:26:11;98363.22;;;10.44;100.00
36242;BME280;22283;42.748;12.732;2024-03-22T04:31:12;98357.94;;;10.44;100.00
36242;BME280;22283;42.748;12.732;2024-03-22T04:36:13;98363.03;;;10.47;100.00
36242;BME280;22283;42.748;12.732;2024-03-22T04:41:13;98361.97;;;10.50;100.00
36242;BME280;22283;42.748;12.732;2024-03-22T04:46:14;98370.53;;;10.53;100.00
36242;BME280;22283;42.748;12.732;2024-03-22T04:51:14;98365.13;;;10.55;100.00
36242;BME280;22283;42.748;12.732;2024-03-22T04:56:15;98369.16;;;10.48;100.00
36242;BME280;22283;42.748;12.732;2024-03-22T05:01:15;98373.19;;;10.53;100.00
36242;BME280;22283;42.748;12.732;2024-03-22T05:06:17;98378.38;;;10.55;100.00
36242;BME280;22283;42.748;12.732;2024-03-22T05:11:18;98376.88;;;10.51;100.00
36242;BME280;22283;42.748;12.732;2024-03-22T05:16:19;98378.38;;;10.55;100.00
36242;BME280;22283;42.748;12.732;2024-03-22T05:21:19;98385.03;;;10.48;100.00
36242;BME280;22283;42.748;12.732;2024-03-22T05:26:20;98394.75;;;10.47;100.00
36242;BME280;22283;42.748;12.732;2024-03-22T05:31:21;98396.44;;;10.48;100.00
36242;BME280;22283;42.748;12.732;2024-03-22T05:36:21;98394.97;;;10.57;100.00
36242;BME280;22283;42.748;12.732;2024-03-22T05:41:22;98401.31;;;10.67;100.00
36242;BME280;22283;42.748;12.732;2024-03-22T05:46:24;98406.31;;;10.72;100.00
36242;BME280;22283;42.748;12.732;2024-03-22T05:51:26;98402.41;;;10.77;100.00
36242;BME280;22283;42.748;12.732;2024-03-22T05:56:27;98396.34;;;10.75;100.00
36242;BME280;22283;42.748;12.732;2024-03-22T06:01:27;98398.78;;;10.78;100.00
36242;BME280;22283;42.748;12.732;2024-03-22T06:06:28;98411.69;;;10.83;100.00
36242;BME280;22283;42.748;12.732;2024-03-22T06:11:29;98415.63;;;10.90;100.00
36242;BME280;22283;42.748;12.732;2024-03-22T06:16:30;98415.09;;;10.98;100.00
36242;BME280;22283;42.748;12.732;2024-03-22T06:21:31;98409.97;;;11.07;100.00
36242;BME280;22283;42.748;12.732;2024-03-22T06:26:31;98407.91;;;11.24;100.00
36242;BME280;22283;42.748;12.732;2024-03-22T06:31:32;98396.19;;;11.52;100.00
36242;BME280;22283;42.748;12.732;2024-03-22T06:36:32;98394.91;;;11.81;100.00
36242;BME280;22283;42.748;12.732;2024-03-22T06:41:34;98400.72;;;12.11;100.00
36242;BME280;22283;42.748;12.732;2024-03-22T06:46:35;98386.66;;;12.21;100.00
36242;BME280;22283;42.748;12.732;2024-03-22T06:51:35;98391.72;;;12.24;100.00
36242;BME280;22283;42.748;12.732;2024-03-22T06:56:36;98389.59;;;12.41;100.00
36242;BME280;22283;42.748;12.732;2024-03-22T07:01:37;98396.75;;;12.51;100.00
36242;BME280;22283;42.748;12.732;2024-03-22T07:06:38;98387.50;;;12.79;100.00
36242;BME280;22283;42.748;12.732;2024-03-22T07:11:38;98397.38;;;12.77;100.00
36242;BME280;22283;42.748;12.732;2024-03-22T07:16:39;98395.06;;;12.73;100.00
36242;BME280;22283;42.748;12.732;2024-03-22T07:21:40;98390.16;;;12.79;100.00
36242;BME280;22283;42.748;12.732;2024-03-22T07:26:40;98396.63;;;13.54;100.00
36242;BME280;22283;42.748;12.732;2024-03-22T07:31:41;98396.47;;;14.10;100.00
36242;BME280;22283;42.748;12.732;2024-03-22T07:36:41;98392.50;;;14.46;100.00
36242;BME280;22283;42.748;12.732;2024-03-22T07:41:42;98401.44;;;14.78;100.00
36242;BME280;22283;42.748;12.732;2024-03-22T07:46:44;98410.16;;;15.20;100.00
36242;BME280;22283;42.748;12.732;2024-03-22T07:51:47;98408.44;;;15.49;95.11
36242;BME280;22283;42.748;12.732;2024-03-22T07:56:47;98406.91;;;15.16;96.75
36242;BME280;22283;42.748;12.732;2024-03-22T08:01:47;98411.78;;;14.81;98.00
36242;BME280;22283;42.748;12.732;2024-03-22T08:06:50;98420.44;;;14.52;100.00
36242;BME280;22283;42.748;12.732;2024-03-22T08:11:50;98416.47;;;14.25;99.06
36242;BME280;22283;42.748;12.732;2024-03-22T08:16:51;98419.97;;;14.47;100.00
36242;BME280;22283;42.748;12.732;2024-03-22T08:21:52;98425.09;;;15.02;96.10
36242;BME280;22283;42.748;12.732;2024-03-22T08:26:52;98422.28;;;15.74;94.08
36242;BME280;22283;42.748;12.732;2024-03-22T08:31:53;98425.44;;;16.08;90.69
36242;BME280;22283;42.748;12.732;2024-03-22T08:36:54;98422.75;;;16.28;88.54
36242;BME280;22283;42.748;12.732;2024-03-22T08:41:54;98426.53;;;16.06;91.21
36242;BME280;22283;42.748;12.732;2024-03-22T08:46:55;98428.22;;;16.26;89.50
36242;BME280;22283;42.748;12.732;2024-03-22T08:51:56;98439.19;;;16.52;88.72
36242;BME280;22283;42.748;12.732;2024-03-22T08:56:57;98434.97;;;16.30;81.87
36242;BME280;22283;42.748;12.732;2024-03-22T09:01:58;98413.63;;;16.20;86.12
36242;BME280;22283;42.748;12.732;2024-03-22T09:07:00;98416.59;;;15.58;86.12
36242;BME280;22283;42.748;12.732;2024-03-22T09:12:00;98411.03;;;15.70;86.50
36242;BME280;22283;42.748;12.732;2024-03-22T09:17:01;98421.75;;;15.99;84.08
36242;BME280;22283;42.748;12.732;2024-03-22T09:22:02;98421.50;;;16.32;84.23
36242;BME280;22283;42.748;12.732;2024-03-22T09:27:03;98417.97;;;16.12;82.88
36242;BME280;22283;42.748;12.732;2024-03-22T09:32:08;98413.47;;;16.03;87.53
36242;BME280;22283;42.748;12.732;2024-03-22T09:37:09;98415.56;;;16.38;87.21
36242;BME280;22283;42.748;12.732;2024-03-22T09:42:14;98393.88;;;16.80;85.19
36242;BME280;22283;42.748;12.732;2024-03-22T09:47:17;98386.88;;;17.16;82.56
36242;BME280;22283;42.748;12.732;2024-03-22T09:52:20;98378.75;;;16.98;76.92
36242;BME280;22283;42.748;12.732;2024-03-22T09:57:21;98387.94;;;16.86;78.18
36242;BME280;22283;42.748;12.732;2024-03-22T10:02:23;98388.53;;;17.17;78.58
36242;BME280;22283;42.748;12.732;2024-03-22T10:07:25;98401.56;;;17.30;75.51
36242;BME280;22283;42.748;12.732;2024-03-22T10:12:26;98384.75;;;17.10;73.65
36242;BME280;22283;42.748;12.732;2024-03-22T10:17:27;98378.50;;;17.29;71.90
36242;BME280;22283;42.748;12.732;2024-03-22T10:22:28;98385.69;;;17.74;70.53
36242;BME280;22283;42.748;12.732;2024-03-22T10:27:28;98371.31;;;18.02;70.36
36242;BME280;22283;42.748;12.732;2024-03-22T10:32:29;98368.13;;;17.71;66.37
36242;BME280;22283;42.748;12.732;2024-03-22T10:37:30;98345.16;;;17.78;65.19
36242;BME280;22283;42.748;12.732;2024-03-22T10:42:31;98334.50;;;18.04;63.73
36242;BME280;22283;42.748;12.732;2024-03-22T10:47:33;98335.41;;;18.13;62.04
36242;BME280;22283;42.748;12.732;2024-03-22T10:52:57;98329.13;;;18.22;60.10
36242;BME280;22283;42.748;12.732;2024-03-22T10:58:00;98315.69;;;18.40;61.03
36242;BME280;22283;42.748;12.732;2024-03-22T11:03:04;98313.53;;;18.43;58.55
36242;BME280;22283;42.748;12.732;2024-03-22T11:08:05;98295.38;;;18.81;59.73
36242;BME280;22283;42.748;12.732;2024-03-22T11:13:08;98303.69;;;18.70;58.66
36242;BME280;22283;42.748;12.732;2024-03-22T11:18:09;98304.34;;;18.46;61.37
36242;BME280;22283;42.748;12.732;2024-03-22T11:23:09;98287.06;;;18.40;59.80
36242;BME280;22283;42.748;12.732;2024-03-22T11:28:10;98292.06;;;18.61;59.67
36242;BME280;22283;42.748;12.732;2024-03-22T11:33:10;98293.34;;;18.83;55.99
36242;BME280;22283;42.748;12.732;2024-03-22T11:38:11;98278.84;;;18.68;57.45
36242;BME280;22283;42.748;12.732;2024-03-22T11:43:13;98282.94;;;18.80;57.41
36242;BME280;22283;42.748;12.732;2024-03-22T11:48:15;98283.16;;;18.87;56.76
36242;BME280;22283;42.748;12.732;2024-03-22T11:53:16;98272.84;;;19.08;55.29
36242;BME280;22283;42.748;12.732;2024-03-22T11:58:18;98271.53;;;19.12;56.16
36242;BME280;22283;42.748;12.732;2024-03-22T12:03:19;98268.00;;;19.20;53.36
36242;BME280;22283;42.748;12.732;2024-03-22T12:08:19;98249.41;;;19.10;53.72
36242;BME280;22283;42.748;12.732;2024-03-22T12:13:20;98252.00;;;19.61;54.66
36242;BME280;22283;42.748;12.732;2024-03-22T12:18:20;98242.47;;;19.67;52.73
36242;BME280;22283;42.748;12.732;2024-03-22T12:23:21;98251.88;;;19.71;52.99
36242;BME280;22283;42.748;12.732;2024-03-22T12:28:22;98228.38;;;19.97;52.12
36242;BME280;22283;42.748;12.732;2024-03-22T12:33:22;98229.38;;;19.72;52.63
36242;BME280;22283;42.748;12.732;2024-03-22T12:38:23;98227.03;;;19.52;51.60
36242;BME280;22283;42.748;12.732;2024-03-22T12:43:23;98213.28;;;19.63;51.12
36242;BME280;22283;42.748;12.732;2024-03-22T12:48:24;98216.97;;;19.79;50.72
36242;BME280;22283;42.748;12.732;2024-03-22T12:53:24;98211.94;;;19.76;50.04
36242;BME280;22283;42.748;12.732;2024-03-22T12:58:25;98202.88;;;19.93;49.41
36242;BME280;22283;42.748;12.732;2024-03-22T13:03:25;98191.09;;;20.10;49.34
36242;BME280;22283;42.748;12.732;2024-03-22T13:08:26;98179.00;;;20.14;48.22
36242;BME280;22283;42.748;12.732;2024-03-22T13:13:26;98168.84;;;20.41;48.30
36242;BME280;22283;42.748;12.732;2024-03-22T13:18:27;98170.41;;;20.19;47.72
36242;BME280;22283;42.748;12.732;2024-03-22T13:23:28;98163.38;;;20.18;49.16
36242;BME280;22283;42.748;12.732;2024-03-22T13:28:28;98148.94;;;20.27;49.01
36242;BME280;22283;42.748;12.732;2024-03-22T13:33:29;98140.94;;;20.50;48.55
36242;BME280;22283;42.748;12.732;2024-03-22T13:38:30;98136.25;;;19.88;48.48
36242;BME280;22283;42.748;12.732;2024-03-22T13:43:30;98137.00;;;20.22;49.55
36242;BME280;22283;42.748;12.732;2024-03-22T13:48:31;98137.78;;;20.78;46.92
36242;BME280;22283;42.748;12.732;2024-03-22T13:53:32;98121.69;;;21.01;45.83
36242;BME280;22283;42.748;12.732;2024-03-22T13:58:32;98122.59;;;20.62;44.83
36242;BME280;22283;42.748;12.732;2024-03-22T14:03:33;98115.53;;;20.92;45.90
36242;BME280;22283;42.748;12.732;2024-03-22T14:08:33;98103.00;;;21.07;44.16
36242;BME280;22283;42.748;12.732;2024-03-22T14:13:34;98088.09;;;21.20;43.98
36242;BME280;22283;42.748;12.732;2024-03-22T14:18:34;98091.47;;;21.59;44.67
36242;BME280;22283;42.748;12.732;2024-03-22T14:23:35;98078.97;;;21.67;45.50
36242;BME280;22283;42.748;12.732;2024-03-22T14:28:36;98087.00;;;21.29;45.63
36242;BME280;22283;42.748;12.732;2024-03-22T14:33:38;98089.75;;;21.21;45.88
36242;BME280;22283;42.748;12.732;2024-03-22T14:38:39;98084.78;;;20.86;44.41
36242;BME280;22283;42.748;12.732;2024-03-22T14:43:39;98084.28;;;20.91;47.02
36242;BME280;22283;42.748;12.732;2024-03-22T14:48:40;98089.22;;;20.48;48.18
36242;BME280;22283;42.748;12.732;2024-03-22T14:53:40;98076.25;;;20.60;46.56
36242;BME280;22283;42.748;12.732;2024-03-22T14:58:41;98067.81;;;20.86;46.79
36242;BME280;22283;42.748;12.732;2024-03-22T15:03:43;98067.47;;;20.89;46.10
36242;BME280;22283;42.748;12.732;2024-03-22T15:08:43;98069.66;;;20.62;46.53
36242;BME280;22283;42.748;12.732;2024-03-22T15:13:44;98062.69;;;20.45;45.38
36242;BME280;22283;42.748;12.732;2024-03-22T15:18:44;98056.28;;;20.54;45.57
36242;BME280;22283;42.748;12.732;2024-03-22T15:23:44;98061.06;;;20.36;44.05
36242;BME280;22283;42.748;12.732;2024-03-22T15:28:47;98050.97;;;20.38;44.53
36242;BME280;22283;42.748;12.732;2024-03-22T15:33:48;98043.09;;;20.36;44.33
36242;BME280;22283;42.748;12.732;2024-03-22T15:38:49;98065.06;;;20.01;45.60
36242;BME280;22283;42.748;12.732;2024-03-22T15:43:49;98060.88;;;19.98;46.05
36242;BME280;22283;42.748;12.732;2024-03-22T15:48:50;98067.91;;;19.99;46.27
36242;BME280;22283;42.748;12.732;2024-03-22T15:53:51;98068.63;;;19.93;46.43
36242;BME280;22283;42.748;12.732;2024-03-22T15:58:52;98072.31;;;19.92;46.63
36242;BME280;22283;42.748;12.732;2024-03-22T16:03:57;98064.63;;;19.81;47.19
36242;BME280;22283;42.748;12.732;2024-03-22T16:08:57;98073.88;;;19.70;47.92
36242;BME280;22283;42.748;12.732;2024-03-22T16:13:58;98072.72;;;19.56;49.17
36242;BME280;22283;42.748;12.732;2024-03-22T16:18:58;98070.56;;;19.27;51.03
36242;BME280;22283;42.748;12.732;2024-03-22T16:23:59;98072.06;;;19.05;54.08
36242;BME280;22283;42.748;12.732;2024-03-22T16:28:59;98078.72;;;18.77;55.99
36242;BME280;22283;42.748;12.732;2024-03-22T16:34:00;98081.84;;;18.56;56.55
36242;BME280;22283;42.748;12.732;2024-03-22T16:39:01;98073.91;;;18.30;57.39
36242;BME280;22283;42.748;12.732;2024-03-22T16:44:03;98079.53;;;18.10;57.59
36242;BME280;22283;42.748;12.732;2024-03-22T16:49:03;98079.09;;;17.89;58.34
36242;BME280;22283;42.748;12.732;2024-03-22T16:54:04;98080.28;;;17.68;58.66
36242;BME280;22283;42.748;12.732;2024-03-22T16:59:08;98082.91;;;17.60;59.79
36242;BME280;22283;42.748;12.732;2024-03-22T17:04:08;98076.09;;;17.40;60.10
36242;BME280;22283;42.748;12.732;2024-03-22T17:09:10;98088.03;;;17.28;63.05
36242;BME280;22283;42.748;12.732;2024-03-22T17:14:11;98083.09;;;16.97;64.36
36242;BME280;22283;42.748;12.732;2024-03-22T17:19:13;98088.16;;;16.55;67.80
36242;BME280;22283;42.748;12.732;2024-03-22T17:24:17;98093.38;;;16.29;70.78
36242;BME280;22283;42.748;12.732;2024-03-22T17:29:17;98092.84;;;15.97;73.49
36242;BME280;22283;42.748;12.732;2024-03-22T17:34:18;98094.75;;;15.78;75.82
36242;BME280;22283;42.748;12.732;2024-03-22T17:39:18;98106.28;;;15.59;77.90
36242;BME280;22283;42.748;12.732;2024-03-22T17:44:19;98100.84;;;15.41;79.07
36242;BME280;22283;42.748;12.732;2024-03-22T17:49:20;98111.25;;;15.15;80.53
36242;BME280;22283;42.748;12.732;2024-03-22T17:54:20;98109.84;;;14.82;81.88
36242;BME280;22283;42.748;12.732;2024-03-22T17:59:21;98130.44;;;14.70;83.60
36242;BME280;22283;42.748;12.732;2024-03-22T18:04:22;98118.81;;;14.61;84.05
36242;BME280;22283;42.748;12.732;2024-03-22T18:09:22;98131.47;;;14.48;83.25
36242;BME280;22283;42.748;12.732;2024-03-22T18:14:23;98126.94;;;14.19;82.91
36242;BME280;22283;42.748;12.732;2024-03-22T18:19:25;98121.97;;;14.05;83.25
36242;BME280;22283;42.748;12.732;2024-03-22T18:24:25;98132.97;;;13.91;85.25
36242;BME280;22283;42.748;12.732;2024-03-22T18:29:26;98137.81;;;13.76;86.54
36242;BME280;22283;42.748;12.732;2024-03-22T18:34:26;98141.50;;;13.64;86.98
36242;BME280;22283;42.748;12.732;2024-03-22T18:39:27;98134.06;;;13.37;88.17
36242;BME280;22283;42.748;12.732;2024-03-22T18:44:27;98126.63;;;13.31;90.14
36242;BME280;22283;42.748;12.732;2024-03-22T18:49:28;98130.97;;;13.20;89.92
36242;BME280;22283;42.748;12.732;2024-03-22T18:54:32;98136.78;;;13.14;91.64
36242;BME280;22283;42.748;12.732;2024-03-22T18:59:33;98126.66;;;13.19;90.97
36242;BME280;22283;42.748;12.732;2024-03-22T19:04:34;98138.09;;;13.20;90.32
36242;BME280;22283;42.748;12.732;2024-03-22T19:09:34;98133.69;;;13.09;90.69
36242;BME280;22283;42.748;12.732;2024-03-22T19:14:35;98148.16;;;13.16;90.22
36242;BME280;22283;42.748;12.732;2024-03-22T19:19:35;98154.69;;;13.12;90.89
36242;BME280;22283;42.748;12.732;2024-03-22T19:24:37;98155.56;;;13.01;91.50
36242;BME280;22283;42.748;12.732;2024-03-22T19:29:37;98158.41;;;12.89;92.13
36242;BME280;22283;42.748;12.732;2024-03-22T19:34:38;98156.63;;;12.67;93.22
36242;BME280;22283;42.748;12.732;2024-03-22T19:39:39;98155.59;;;12.47;94.73
36242;BME280;22283;42.748;12.732;2024-03-22T19:44:40;98156.81;;;12.43;95.16
36242;BME280;22283;42.748;12.732;2024-03-22T19:49:41;98165.66;;;12.32;95.89
36242;BME280;22283;42.748;12.732;2024-03-22T19:54:41;98164.91;;;12.07;96.65
36242;BME280;22283;42.748;12.732;2024-03-22T19:59:42;98153.00;;;11.91;98.45
36242;BME280;22283;42.748;12.732;2024-03-22T20:04:43;98146.47;;;11.84;100.00
36242;BME280;22283;42.748;12.732;2024-03-22T20:09:43;98161.16;;;11.76;100.00
36242;BME280;22283;42.748;12.732;2024-03-22T20:14:44;98165.25;;;11.80;100.00
36242;BME280;22283;42.748;12.732;2024-03-22T20:19:44;98167.09;;;11.91;100.00
36242;BME280;22283;42.748;12.732;2024-03-22T20:24:45;98161.69;;;12.04;100.00
36242;BME280;22283;42.748;12.732;2024-03-22T20:29:46;98169.03;;;12.12;100.00
36242;BME280;22283;42.748;12.732;2024-03-22T20:34:47;98161.94;;;12.12;100.00
